ADDS METAR Data INFO
IDs: Format: Raw Decoded Include TAF

Data at: 0937 UTC 25 Nov 2017

KHRL 250852Z AUTO 18009KT 10SM CLR 16/14 A2987 RMK AO2 SLP115 T01560144 58014
KHRL 250752Z AUTO 18006KT 10SM CLR 13/13 A2989 RMK AO2 SLP122 T01330128
KHRL 250652Z AUTO 17005KT 10SM CLR 14/13 A2990 RMK AO2 SLP124 T01390128
KHRL 250552Z AUTO 17003KT 10SM CLR 14/13 A2991 RMK AO2 SLP129 T01440128 10194 20133 402670067 55005
KHRL 250452Z 16006KT 10SM CLR 14/13 A2991 RMK AO2 SLP129 T01390128
KHRL 250352Z 16007KT 10SM CLR 14/13 A2992 RMK AO2 SLP131 T01440133
KHRL 250252Z 14007KT 10SM CLR 16/14 A2993 RMK AO2 SLP134 T01560139 52006
KHRL 250152Z 15008KT 10SM CLR 16/13 A2992 RMK AO2 SLP132 T01610133
KHRL 250052Z 15009KT 10SM CLR 18/12 A2991 RMK AO2 SLP128 T01780117
KHRL 242352Z 17008KT 10SM CLR 19/08 A2991 RMK AO2 SLP127 T01940083 10267 20194 55003
KHRL 242252Z 15010KT 10SM CLR 24/09 A2990 RMK AO2 SLP124 T02390094
KHRL 242152Z 15010G15KT 10SM CLR 26/09 A2990 RMK AO2 SLP125 T02610089
KHRL 242052Z 16009G14KT 10SM CLR 26/08 A2992 RMK AO2 SLP130 T02610083 56033
KHRL 241952Z 19006KT 10SM CLR 26/09 A2993 RMK AO2 SLP135 T02560089
KHRL 241852Z 17008KT 10SM CLR 25/09 A2997 RMK AO2 SLP148 T02500089
KHRL 241752Z 22005KT 10SM CLR 24/09 A3001 RMK AO2 SLP163 T02440094 10244 20067 58011
KHRL 241652Z 20010KT 10SM CLR 23/11 A3004 RMK AO2 SLP172 T02280111
KHRL 241552Z 18006KT 10SM CLR 21/11 A3005 RMK AO2 SLP177 T02110111
KHRL 241452Z 00000KT 10SM CLR 15/11 A3004 RMK AO2 SLP173 T01500111 51007
KHRL 241352Z 00000KT 10SM CLR 10/09 A3004 RMK AO2 SLP171 T01000089
KHRL 241252Z 00000KT 10SM CLR 07/06 A3003 RMK AO2 SLP170 T00670061
KHRL 241152Z 00000KT 10SM CLR 07/06 A3002 RMK AO2 SLP166 T00720061 10100 20072 56005
KHRL 241052Z AUTO 00000KT 10SM CLR 08/07 A3002 RMK AO2 SLP166 T00780067
KHRL 240952Z AUTO 26003KT 10SM CLR 08/07 A3003 RMK AO2 SLP168 T00830072
KHRL 240852Z AUTO 29003KT 10SM CLR 09/07 A3004 RMK AO2 SLP171 T00890072 56014
KHRL 240752Z AUTO 00000KT 10SM CLR 09/07 A3005 RMK AO2 SLP175 T00940072
KHRL 240652Z AUTO 14003KT 10SM CLR 09/07 A3006 RMK AO2 SLP178 T00940067
KHRL 240552Z AUTO 14003KT 10SM CLR 09/06 A3008 RMK AO2 SLP184 T00940061 10156 20089 402390061 58009
KHRL 240452Z AUTO 16004KT 10SM CLR 09/06 A3010 RMK AO2 SLP192 T00940061
KHRL 240352Z AUTO 16004KT 10SM CLR 11/07 A3010 RMK AO2 SLP193 T01110067
KHRL 240252Z AUTO 00000KT 10SM CLR 11/06 A3010 RMK AO2 SLP193 T01110056 53007
KHRL 240152Z AUTO 10004KT 10SM CLR 13/06 A3009 RMK AO2 SLP190 T01280056
KHRL 240052Z AUTO 08006KT 10SM CLR 12/05 A3009 RMK AO2 SLP188 T01220050
KHRL 232352Z AUTO 09007KT 10SM CLR 16/05 A3008 RMK AO2 SLP186 T01560050 10239 20156 55001
KHRL 232252Z AUTO 07010KT 10SM CLR 21/03 A3008 RMK AO2 SLP184 T02060028
KHRL 232152Z AUTO 06008KT 10SM CLR 23/01 A3007 RMK AO2 SLP182 T02280011